Time;durP1;ratioP1;P1;durP2;ratioP2;P2;SDS_P1;SDS_P2;PMS_P1;PMS_P2;Temp;Humidity;BMP_temperature;BMP_pressure;BME280_temperature;BME280_humidity;BME280_pressure;Samples;Min_cycle;Max_cycle;Signal;HPM_P1;HPM_P2
2023/01/01 00:00:49;;;;;;;164.90;114.40;;;;;;;7.08;93.28;98209.48;105255;1313;22173;-85
2023/01/01 00:03:37;;;;;;;100.30;86.60;;;;;;;7.03;92.67;98216.43;104766;1330;22122;-86
2023/01/01 00:06:12;;;;;;;78.80;71.00;;;;;;;6.95;92.51;98219.10;104620;1333;22188;-86
2023/01/01 00:08:41;;;;;;;70.50;63.70;;;;;;;6.84;92.99;98216.74;105022;1320;22135;-86
2023/01/01 00:11:10;;;;;;;61.10;55.30;;;;;;;6.84;93.03;98216.41;104781;1329;22110;-85
2023/01/01 00:13:39;;;;;;;55.90;50.40;;;;;;;6.92;93.24;98217.71;104850;1328;22240;-85
2023/01/01 00:16:10;;;;;;;76.60;69.10;;;;;;;7.01;93.54;98224.63;104590;1330;22075;-85
2023/01/01 00:18:39;;;;;;;69.70;63.20;;;;;;;6.98;93.28;98232.34;104597;1330;22196;-85
2023/01/01 00:21:12;;;;;;;55.00;50.00;;;;;;;6.92;93.39;98237.74;104633;1324;22234;-91
2023/01/01 00:23:41;;;;;;;69.20;62.70;;;;;;;6.89;93.67;98237.05;104775;1330;22137;-86
2023/01/01 00:26:11;;;;;;;55.20;50.40;;;;;;;6.85;93.99;98235.65;105018;1308;22131;-87
2023/01/01 00:28:39;;;;;;;58.80;53.50;;;;;;;6.86;93.61;98234.41;104884;1329;22127;-91
2023/01/01 00:31:15;;;;;;;47.10;42.60;;;;;;;6.80;93.60;98228.46;105023;1320;22106;-92
2023/01/01 00:33:45;;;;;;;45.50;41.30;;;;;;;6.82;93.43;98223.59;104854;1330;22140;-91
2023/01/01 00:36:33;;;;;;;50.60;45.80;;;;;;;6.82;93.32;98225.62;106218;1294;22660;31
2023/01/01 00:39:02;;;;;;;53.80;48.60;;;;;;;6.77;93.47;98221.40;105922;1297;22345;-93
2023/01/01 00:41:50;;;;;;;43.20;39.30;;;;;;;6.63;93.62;98222.92;106072;1285;23890;31
2023/01/01 00:44:18;;;;;;;51.20;46.30;;;;;;;6.59;93.70;98219.54;106229;1282;22375;-90
2023/01/01 00:46:46;;;;;;;41.40;37.00;;;;;;;6.49;93.90;98216.04;105301;1317;22093;-92
2023/01/01 00:49:14;;;;;;;34.60;31.20;;;;;;;6.54;94.00;98216.73;104955;1327;22250;-92
2023/01/01 00:51:49;;;;;;;42.30;38.10;;;;;;;6.63;94.14;98216.33;105186;1289;22148;31
2023/01/01 00:54:18;;;;;;;40.10;36.30;;;;;;;6.66;94.02;98218.16;105445;1284;22176;-92
2023/01/01 00:56:46;;;;;;;45.60;41.30;;;;;;;6.68;94.03;98212.86;104944;1327;22103;-93
2023/01/01 00:59:35;;;;;;;58.30;52.70;;;;;;;6.65;93.85;98214.99;105653;1299;22211;31
2023/01/01 01:02:04;;;;;;;50.50;45.70;;;;;;;6.54;93.91;98222.25;105811;1298;22168;-95
2023/01/01 01:04:33;;;;;;;37.70;34.10;;;;;;;6.45;94.37;98225.92;105234;1324;22851;-93
2023/01/01 01:07:09;;;;;;;41.30;37.30;;;;;;;6.40;94.30;98224.73;105863;1294;22321;-93
2023/01/01 01:09:38;;;;;;;30.40;27.40;;;;;;;6.39;94.50;98228.70;104965;1327;22090;-92
2023/01/01 01:12:06;;;;;;;31.60;28.60;;;;;;;6.42;94.42;98230.25;105002;1327;22143;-92
2023/01/01 01:14:46;;;;;;;38.80;35.00;;;;;;;6.40;94.51;98232.55;105033;1327;22179;-93
2023/01/01 01:17:14;;;;;;;31.90;28.80;;;;;;;6.31;94.96;98234.13;105051;1327;23753;-91
2023/01/01 01:19:42;;;;;;;32.40;29.30;;;;;;;6.31;95.55;98228.89;105049;1326;23079;-92
2023/01/01 01:22:10;;;;;;;30.60;27.50;;;;;;;6.41;95.33;98233.62;105542;1320;22182;-93
2023/01/01 01:24:38;;;;;;;37.40;33.90;;;;;;;6.44;95.30;98234.54;105464;1320;22165;-94
2023/01/01 01:27:06;;;;;;;39.00;35.50;;;;;;;6.32;95.14;98234.55;104929;1327;22219;-92
2023/01/01 01:29:34;;;;;;;54.90;49.80;;;;;;;6.23;95.48;98227.25;104994;1327;22198;-90
2023/01/01 01:32:02;;;;;;;32.90;29.80;;;;;;;6.16;95.53;98233.66;104825;1327;22157;-89
2023/01/01 01:34:30;;;;;;;35.70;32.50;;;;;;;6.16;95.98;98233.59;105001;1327;22204;-90
2023/01/01 01:36:58;;;;;;;34.00;30.70;;;;;;;6.20;95.42;98235.05;104951;1327;22132;-91
2023/01/01 01:39:26;;;;;;;21.50;19.30;;;;;;;6.22;95.47;98228.04;105017;1327;22186;-88
2023/01/01 01:42:02;;;;;;;36.10;32.50;;;;;;;6.67;98.57;98219.86;105610;1295;23846;31
2023/01/01 01:45:01;;;;;;;36.80;33.00;;;;;;;6.96;96.35;98221.98;105675;1291;22209;31
2023/01/01 01:47:54;;;;;;;40.00;36.10;;;;;;;6.85;95.98;98218.67;103973;1286;23474;31
2023/01/01 01:50:30;;;;;;;40.60;36.70;;;;;;;6.57;95.86;98204.75;105355;1317;22210;-94
2023/01/01 01:53:14;;;;;;;38.30;34.30;;;;;;;6.50;95.74;98219.62;105125;1288;22068;31
2023/01/01 01:56:20;;;;;;;37.60;34.00;;;;;;;6.41;95.83;98220.02;106062;1295;22615;31
2023/01/01 01:58:49;;;;;;;38.90;34.90;;;;;;;6.32;95.68;98222.95;105760;1323;22044;-86
2023/01/01 02:01:17;;;;;;;34.90;31.40;;;;;;;6.34;96.68;98216.00;105937;1290;21978;-90
2023/01/01 02:04:06;;;;;;;39.90;35.90;;;;;;;6.54;97.38;98210.10;106440;1287;22079;-88
2023/01/01 02:06:34;;;;;;;35.30;31.90;;;;;;;6.67;96.38;98209.76;105315;1292;21928;-89
2023/01/01 02:09:04;;;;;;;45.00;40.80;;;;;;;6.81;96.56;98205.44;105214;1324;22094;-91
2023/01/01 02:11:39;;;;;;;53.10;47.80;;;;;;;6.83;95.40;98204.89;105739;1289;21868;-91
2023/01/01 02:14:13;;;;;;;55.00;49.80;;;;;;;6.84;95.85;98204.30;106240;1296;22585;31
2023/01/01 02:16:54;;;;;;;70.00;63.50;;;;;;;6.78;95.61;98197.38;106862;1288;22191;31
2023/01/01 02:19:39;;;;;;;55.30;50.10;;;;;;;6.75;95.79;98197.23;105336;1299;22169;-94
2023/01/01 02:22:23;;;;;;;58.00;52.30;;;;;;;6.75;95.44;98197.70;105919;1295;22779;31
2023/01/01 02:25:08;;;;;;;54.30;49.10;;;;;;;6.70;95.66;98191.77;105483;1288;22128;31
2023/01/01 02:28:05;;;;;;;54.60;49.60;;;;;;;6.79;95.59;98189.04;105899;1297;24552;31
2023/01/01 02:30:46;;;;;;;51.90;47.00;;;;;;;6.78;95.51;98195.95;107241;1290;23674;31
2023/01/01 02:33:23;;;;;;;51.10;46.40;;;;;;;6.66;95.52;98198.71;106313;1295;22022;-89
2023/01/01 02:36:03;;;;;;;43.30;39.20;;;;;;;6.60;95.54;98191.53;105522;1287;22316;31
2023/01/01 02:38:53;;;;;;;45.90;41.60;;;;;;;6.65;95.78;98191.23;106227;1295;22297;31
2023/01/01 02:41:31;;;;;;;47.00;42.50;;;;;;;6.65;95.43;98189.60;105832;1317;22107;-85
2023/01/01 02:44:21;;;;;;;47.20;42.70;;;;;;;6.59;95.41;98186.98;107373;1288;22274;31
2023/01/01 02:46:54;;;;;;;55.50;50.30;;;;;;;6.57;95.55;98193.02;107152;1291;22695;31
2023/01/01 02:49:31;;;;;;;61.20;55.30;;;;;;;6.55;95.59;98188.52;107239;1287;21715;31
2023/01/01 02:52:20;;;;;;;47.70;43.30;;;;;;;6.50;95.57;98183.22;107433;1281;22230;31
2023/01/01 02:55:06;;;;;;;50.90;45.80;;;;;;;6.45;95.23;98189.05;107256;1282;22932;31
2023/01/01 02:57:49;;;;;;;44.30;40.00;;;;;;;6.41;95.26;98188.81;107094;1283;22301;31
2023/01/01 03:03:54;;;;;;;41.50;37.70;;;;;;;6.52;95.75;98184.45;86958;1317;22819;31
2023/01/01 03:06:40;;;;;;;39.90;36.00;;;;;;;6.52;95.65;98188.30;107197;1289;22541;31
2023/01/01 03:09:55;;;;;;;37.60;33.90;;;;;;;6.43;95.36;98195.99;107097;1283;23555;31
2023/01/01 03:12:55;;;;;;;41.60;37.60;;;;;;;6.29;95.45;98202.54;107003;1294;22193;31
2023/01/01 03:15:38;;;;;;;37.70;34.10;;;;;;;6.26;95.81;98202.64;107320;1289;22374;31
2023/01/01 03:18:51;;;;;;;35.40;31.80;;;;;;;6.34;95.97;98197.10;107042;1291;22290;31
2023/01/01 03:22:12;;;;;;;36.40;32.80;;;;;;;6.49;95.61;98197.89;107255;1279;22286;31
2023/01/01 03:25:31;;;;;;;31.40;28.40;;;;;;;6.51;95.51;98201.21;107355;1289;22653;31
2023/01/01 03:28:19;;;;;;;30.00;27.20;;;;;;;6.47;95.54;98207.39;107355;1286;22228;31
2023/01/01 03:31:16;;;;;;;23.80;21.40;;;;;;;6.59;96.01;98217.71;107016;1292;22311;31
2023/01/01 03:34:05;;;;;;;22.70;20.40;;;;;;;7.15;96.24;98220.49;107230;1288;22385;31
2023/01/01 03:37:01;;;;;;;30.00;23.10;;;;;;;7.67;96.29;98217.12;107044;1292;22312;31
2023/01/01 03:39:45;;;;;;;22.50;20.20;;;;;;;7.93;95.92;98211.14;107052;1289;22647;31
2023/01/01 03:42:30;;;;;;;29.30;25.50;;;;;;;8.08;95.40;98212.43;107269;1282;22694;31
2023/01/01 03:45:03;;;;;;;30.00;26.00;;;;;;;8.10;94.62;98213.23;104690;1292;22201;-89
2023/01/01 03:47:39;;;;;;;22.50;20.20;;;;;;;8.05;94.19;98214.81;102747;1298;22146;-87
2023/01/01 03:50:14;;;;;;;25.00;22.60;;;;;;;7.99;93.69;98229.48;106939;1283;22223;31
2023/01/01 03:53:10;;;;;;;24.10;21.80;;;;;;;7.78;92.82;98234.43;107345;1288;23845;31
2023/01/01 03:55:47;;;;;;;;;;;;;;;7.63;93.15;98230.77;107399;1285;23409;31
2023/01/01 03:58:31;;;;;;;27.20;24.50;;;;;;;7.58;93.57;98235.11;107411;1289;22703;31
2023/01/01 04:01:15;;;;;;;31.20;28.20;;;;;;;7.43;92.69;98241.94;107043;1294;22311;31
2023/01/01 04:04:04;;;;;;;32.10;29.00;;;;;;;7.27;92.88;98245.05;107167;1288;23862;31
2023/01/01 04:06:40;;;;;;;32.30;29.10;;;;;;;7.09;93.06;98234.77;106987;1295;22228;31
2023/01/01 04:09:32;;;;;;;29.50;26.80;;;;;;;7.06;92.71;98239.04;105668;1288;22453;-87
2023/01/01 04:12:00;;;;;;;29.60;26.70;;;;;;;7.06;92.45;98240.16;105400;1282;22177;-90
2023/01/01 04:14:38;;;;;;;35.60;32.10;;;;;;;7.10;93.31;98236.91;105540;1310;22061;-93
2023/01/01 04:17:08;;;;;;;35.10;31.50;;;;;;;7.16;93.07;98233.64;105225;1324;21879;-90
2023/01/01 04:19:37;;;;;;;29.80;27.10;;;;;;;7.15;92.87;98230.52;105500;1295;22118;-93
2023/01/01 04:22:05;;;;;;;28.90;25.90;;;;;;;7.06;92.08;98231.01;105582;1282;22442;-90
2023/01/01 04:24:52;;;;;;;36.50;32.80;;;;;;;6.99;92.61;98223.88;105674;1295;22787;31
2023/01/01 04:27:26;;;;;;;37.80;32.70;;;;;;;6.89;92.15;98224.72;106961;1294;22795;31
2023/01/01 04:30:03;;;;;;;54.70;49.00;;;;;;;6.87;92.55;98222.15;106535;1295;22363;31
2023/01/01 04:32:37;;;;;;;46.20;41.50;;;;;;;6.84;92.34;98210.58;106538;1293;22240;31
2023/01/01 04:35:14;;;;;;;41.30;37.20;;;;;;;6.82;92.37;98214.21;102037;1276;22371;-86
2023/01/01 04:37:49;;;;;;;54.60;46.60;;;;;;;6.79;92.70;98211.48;100345;1279;22265;-85
2023/01/01 04:40:18;;;;;;;47.90;42.90;;;;;;;6.79;92.75;98215.02;105441;1296;22794;-89
2023/01/01 04:42:53;;;;;;;37.20;33.20;;;;;;;6.79;92.83;98217.00;105590;1289;23088;-87
2023/01/01 04:45:29;;;;;;;36.30;32.20;;;;;;;6.90;92.95;98219.27;106819;1294;22319;31
2023/01/01 04:48:03;;;;;;;32.40;28.80;;;;;;;6.93;92.96;98221.99;103415;1283;22164;-92
2023/01/01 04:50:31;;;;;;;26.60;23.30;;;;;;;7.04;93.50;98224.15;105202;1324;22142;-89
2023/01/01 04:53:07;;;;;;;29.40;26.20;;;;;;;7.16;93.13;98227.30;105348;1292;22341;31
2023/01/01 04:55:43;;;;;;;28.40;25.20;;;;;;;7.23;93.17;98221.85;105959;1295;22365;-88
2023/01/01 04:58:34;;;;;;;39.00;34.80;;;;;;;7.42;93.70;98220.49;106485;1292;22671;31
2023/01/01 05:01:22;;;;;;;46.80;41.70;;;;;;;7.44;91.86;98250.30;106753;1292;23405;31
2023/01/01 05:04:00;;;;;;;34.90;30.70;;;;;;;7.36;92.89;98242.42;103421;1295;22564;31
2023/01/01 05:06:36;;;;;;;28.50;25.20;;;;;;;7.47;93.14;98237.16;106075;1284;22675;31
2023/01/01 05:09:04;;;;;;;24.70;22.20;;;;;;;7.79;92.93;98240.37;105394;1299;22193;-90
2023/01/01 05:11:32;;;;;;;21.50;19.30;;;;;;;8.04;93.43;98239.40;105040;1321;22170;-93
2023/01/01 05:14:01;;;;;;;19.90;17.40;;;;;;;8.29;93.01;98257.40;105167;1321;21868;-88
2023/01/01 05:16:31;;;;;;;21.90;19.00;;;;;;;8.47;92.74;98256.23;105250;1321;22142;-90
2023/01/01 05:18:59;;;;;;;17.80;16.00;;;;;;;8.74;92.16;98251.89;105049;1327;22133;-93
2023/01/01 05:21:31;;;;;;;17.70;15.90;;;;;;;8.97;92.24;98239.64;105660;1293;22052;-87
2023/01/01 05:24:09;;;;;;;19.40;17.50;;;;;;;9.04;92.05;98228.48;106071;1295;24004;31
2023/01/01 05:26:46;;;;;;;18.10;16.30;;;;;;;9.22;92.03;98237.42;106132;1281;22178;31
2023/01/01 05:29:23;;;;;;;18.00;15.40;;;;;;;9.29;91.88;98237.47;105876;1287;23715;31
2023/01/01 05:31:56;;;;;;;23.60;21.30;;;;;;;9.31;91.16;98245.52;107081;1289;22255;31
2023/01/01 05:34:34;;;;;;;19.50;17.50;;;;;;;9.07;89.55;98253.56;106867;1296;23888;31
2023/01/01 05:37:08;;;;;;;21.70;19.60;;;;;;;8.87;89.79;98264.43;106929;1289;22690;31
2023/01/01 05:39:36;;;;;;;20.90;18.90;;;;;;;8.76;90.40;98260.79;105818;1291;22867;-94
2023/01/01 05:42:04;;;;;;;23.10;20.70;;;;;;;8.76;90.62;98265.52;105235;1324;22926;-90
2023/01/01 05:44:32;;;;;;;23.90;21.50;;;;;;;8.75;90.43;98275.91;105386;1324;22104;-89
2023/01/01 05:47:00;;;;;;;23.10;20.40;;;;;;;8.71;89.90;98288.50;105425;1322;22306;-92
2023/01/01 05:49:28;;;;;;;22.80;20.60;;;;;;;8.51;89.18;98295.14;105512;1302;22188;-93
2023/01/01 05:51:56;;;;;;;25.20;22.60;;;;;;;8.42;89.69;98296.95;105354;1324;22153;-91
2023/01/01 05:54:24;;;;;;;21.60;19.50;;;;;;;8.42;89.95;98297.71;105151;1324;22269;-90
2023/01/01 05:56:52;;;;;;;27.60;24.70;;;;;;;8.43;90.11;98295.66;105299;1319;22203;-92
2023/01/01 05:59:20;;;;;;;25.80;23.00;;;;;;;8.38;90.08;98300.12;105294;1318;22145;-92
2023/01/01 06:01:47;;;;;;;22.10;19.80;;;;;;;8.26;89.21;98314.64;105510;1317;22903;-92
2023/01/01 06:04:16;;;;;;;21.20;19.10;;;;;;;8.14;89.62;98315.17;105287;1319;22208;-90
2023/01/01 06:06:44;;;;;;;21.70;19.60;;;;;;;8.17;89.96;98316.23;105564;1317;22963;-93
2023/01/01 06:09:12;;;;;;;20.00;18.00;;;;;;;8.32;89.78;98316.29;105307;1323;22129;-91
2023/01/01 06:11:40;;;;;;;20.30;18.20;;;;;;;8.47;89.43;98317.67;104884;1328;22275;-91
2023/01/01 06:14:08;;;;;;;21.80;19.60;;;;;;;8.56;89.86;98314.79;104952;1327;22254;-90
2023/01/01 06:16:36;;;;;;;22.00;19.40;;;;;;;8.64;89.18;98314.05;105032;1325;22725;-91
2023/01/01 06:19:04;;;;;;;21.00;18.90;;;;;;;8.69;88.94;98314.45;104966;1327;22203;-91
2023/01/01 06:21:32;;;;;;;22.20;19.40;;;;;;;8.75;88.79;98317.23;105075;1327;22909;-92
2023/01/01 06:24:00;;;;;;;21.20;19.10;;;;;;;8.77;87.99;98315.71;105534;1309;23085;-92
2023/01/01 06:26:31;;;;;;;21.60;19.30;;;;;;;8.80;88.13;98325.58;105546;1318;22641;-90
2023/01/01 06:29:01;;;;;;;20.60;18.50;;;;;;;8.79;88.33;98328.27;105071;1314;22303;-92
2023/01/01 06:31:30;;;;;;;23.50;21.00;;;;;;;8.79;88.47;98334.23;105061;1324;22140;-91
2023/01/01 06:34:07;;;;;;;23.20;21.00;;;;;;;8.82;88.30;98335.72;104991;1321;23011;-91
2023/01/01 06:36:35;;;;;;;25.00;22.60;;;;;;;8.83;88.48;98330.41;104950;1327;22790;-92
2023/01/01 06:39:04;;;;;;;27.40;24.70;;;;;;;8.86;88.56;98332.66;105068;1311;22947;-91
2023/01/01 06:41:32;;;;;;;28.80;25.80;;;;;;;8.86;88.42;98331.47;105031;1324;22235;-90
2023/01/01 06:44:00;;;;;;;24.80;22.30;;;;;;;8.86;88.27;98329.70;105354;1312;22845;-91
2023/01/01 06:46:31;;;;;;;26.30;23.60;;;;;;;8.82;87.78;98328.27;105259;1324;22223;-92
2023/01/01 06:49:04;;;;;;;24.40;20.50;;;;;;;8.81;87.65;98333.64;105065;1318;22824;-92
2023/01/01 06:51:37;;;;;;;21.30;19.20;;;;;;;8.80;86.38;98345.20;104969;1324;22227;-92
2023/01/01 06:54:05;;;;;;;21.20;19.00;;;;;;;8.82;86.50;98346.05;105625;1302;22207;-93
2023/01/01 06:56:34;;;;;;;21.20;19.10;;;;;;;8.88;86.45;98341.40;105402;1323;22242;-93
2023/01/01 06:59:04;;;;;;;20.60;18.50;;;;;;;8.94;85.52;98341.15;105136;1324;22227;-92
2023/01/01 07:01:38;;;;;;;20.40;18.30;;;;;;;8.98;85.75;98332.84;105154;1325;22061;-87
2023/01/01 07:04:14;;;;;;;19.10;17.30;;;;;;;9.02;85.88;98340.89;105093;1324;22226;-91
2023/01/01 07:06:47;;;;;;;19.30;17.30;;;;;;;9.04;85.23;98348.20;105164;1324;23812;-88
2023/01/01 07:09:25;;;;;;;17.10;15.40;;;;;;;9.07;84.49;98348.55;106008;1294;22054;-86
2023/01/01 07:12:30;;;;;;;;;;;;;;;9.13;84.19;98356.59;107583;1289;23877;31
2023/01/01 07:19:04;;;;;;;15.90;14.30;;;;;;;9.26;83.12;98362.64;105135;1303;22238;31
2023/01/01 07:21:44;;;;;;;15.40;13.80;;;;;;;9.32;83.13;98364.05;104994;1315;22174;-90
2023/01/01 07:24:14;;;;;;;15.90;14.10;;;;;;;9.37;82.39;98373.70;105000;1327;22082;-89
2023/01/01 07:26:43;;;;;;;16.90;15.20;;;;;;;9.42;82.03;98373.56;104980;1317;22652;-88
2023/01/01 07:29:14;;;;;;;16.30;14.40;;;;;;;9.43;82.03;98377.96;104925;1326;22189;-89
2023/01/01 07:31:43;;;;;;;23.80;20.30;;;;;;;9.47;82.48;98379.66;104910;1327;22108;-89
2023/01/01 07:34:14;;;;;;;19.50;17.30;;;;;;;9.52;82.83;98376.77;104853;1327;22091;-88
2023/01/01 07:36:42;;;;;;;19.10;15.90;;;;;;;9.55;82.58;98377.03;104932;1327;155828;-87
2023/01/01 07:39:11;;;;;;;17.50;15.70;;;;;;;9.56;82.87;98385.74;105130;1320;22115;-89
2023/01/01 07:41:41;;;;;;;17.80;16.00;;;;;;;9.58;82.57;98386.85;105253;1320;22206;-87
2023/01/01 07:44:13;;;;;;;19.70;15.90;;;;;;;9.60;82.84;98392.02;104982;1327;22095;-89
2023/01/01 07:46:41;;;;;;;16.70;15.00;;;;;;;9.63;82.59;98398.38;104913;1327;22174;-88
2023/01/01 07:49:09;;;;;;;16.50;14.90;;;;;;;9.68;82.58;98398.19;104896;1327;22081;-90
2023/01/01 07:51:37;;;;;;;18.60;16.70;;;;;;;9.72;82.03;98403.22;104851;1325;22090;-89
2023/01/01 07:54:05;;;;;;;18.60;16.60;;;;;;;9.73;82.19;98405.73;104965;1325;22573;-89
2023/01/01 07:56:35;;;;;;;17.90;16.00;;;;;;;9.74;82.13;98413.22;104992;1326;22113;-88
2023/01/01 07:59:04;;;;;;;18.40;16.00;;;;;;;9.72;82.31;98419.74;104938;1327;22132;-88
2023/01/01 08:01:34;;;;;;;18.50;16.60;;;;;;;9.72;82.55;98420.71;104964;1327;22134;-89
2023/01/01 08:04:04;;;;;;;19.60;17.50;;;;;;;9.73;82.67;98427.54;104921;1327;22177;-89
2023/01/01 08:06:32;;;;;;;18.90;16.90;;;;;;;9.77;82.00;98426.43;104893;1327;22130;-88
2023/01/01 08:09:00;;;;;;;20.20;16.80;;;;;;;9.78;82.05;98436.61;104957;1326;22319;-89
2023/01/01 08:11:28;;;;;;;19.30;16.90;;;;;;;9.76;82.27;98436.61;104894;1327;22189;-90
2023/01/01 08:13:56;;;;;;;19.20;17.30;;;;;;;9.76;82.33;98432.42;105059;1324;22135;-90
2023/01/01 08:16:24;;;;;;;19.50;17.50;;;;;;;9.75;81.65;98435.77;105096;1327;22279;-88
2023/01/01 08:18:52;;;;;;;18.60;16.60;;;;;;;9.76;82.01;98436.52;105146;1327;22274;-86
2023/01/01 08:21:20;;;;;;;19.60;17.30;;;;;;;9.79;82.22;98447.84;105088;1327;22119;-87
2023/01/01 08:23:48;;;;;;;17.70;15.90;;;;;;;9.83;82.21;98455.09;105246;1321;22119;-87
2023/01/01 08:26:17;;;;;;;21.00;17.90;;;;;;;9.84;81.53;98458.20;105122;1319;22218;-86
2023/01/01 08:28:45;;;;;;;20.80;18.20;;;;;;;9.83;81.88;98464.77;104994;1326;22188;-89
2023/01/01 08:31:20;;;;;;;19.00;17.20;;;;;;;9.83;82.05;98471.98;104949;1327;22091;-88
2023/01/01 08:33:48;;;;;;;21.00;19.10;;;;;;;9.83;81.36;98474.89;104973;1303;22195;-88
2023/01/01 08:36:16;;;;;;;18.20;16.40;;;;;;;9.82;81.21;98465.75;105001;1327;22133;-88
2023/01/01 08:38:44;;;;;;;17.40;15.60;;;;;;;9.84;81.12;98468.32;104986;1327;22125;-89
2023/01/01 08:41:12;;;;;;;17.90;16.10;;;;;;;9.86;81.16;98470.52;104961;1327;22098;-88
2023/01/01 08:43:40;;;;;;;18.60;16.70;;;;;;;9.88;80.97;98472.11;105047;1325;22082;-89
2023/01/01 08:46:08;;;;;;;22.20;19.90;;;;;;;9.87;80.68;98482.23;104989;1326;22139;-91
2023/01/01 08:48:36;;;;;;;23.00;20.60;;;;;;;9.84;80.63;98478.21;105002;1327;22067;-89
2023/01/01 08:51:04;;;;;;;21.60;19.40;;;;;;;9.83;81.31;98486.35;104975;1327;22118;-90
2023/01/01 08:53:32;;;;;;;19.10;17.20;;;;;;;9.84;81.26;98491.23;105043;1327;22117;-90
2023/01/01 08:56:04;;;;;;;20.10;18.10;;;;;;;9.86;81.17;98493.66;104995;1326;22228;-92
2023/01/01 08:58:34;;;;;;;18.90;17.00;;;;;;;9.88;81.26;98495.70;104929;1324;22825;-91
2023/01/01 09:01:04;;;;;;;24.30;21.90;;;;;;;9.93;81.45;98489.68;104895;1327;22706;-91
2023/01/01 09:03:33;;;;;;;28.00;25.30;;;;;;;9.96;81.57;98486.76;105030;1327;22273;-88
2023/01/01 09:06:01;;;;;;;25.30;22.90;;;;;;;9.98;81.37;98485.13;105107;1327;22881;-91
2023/01/01 09:12:15;;;;;;;28.70;26.00;;;;;;;9.93;81.62;98486.08;105044;1325;22184;-90
2023/01/01 09:14:46;;;;;;;29.50;26.80;;;;;;;9.89;81.57;98482.92;105273;1320;23427;-89
2023/01/01 09:17:19;;;;;;;29.00;26.20;;;;;;;9.86;81.50;98479.19;104978;1327;22840;-88
2023/01/01 09:19:47;;;;;;;32.30;29.30;;;;;;;9.81;81.54;98477.00;104958;1326;22156;-89
2023/01/01 09:22:15;;;;;;;32.30;29.20;;;;;;;9.79;81.49;98473.30;104930;1327;22072;-89
2023/01/01 09:24:43;;;;;;;31.50;28.20;;;;;;;9.83;81.69;98473.54;104870;1327;22221;-89
2023/01/01 09:27:11;;;;;;;32.80;29.60;;;;;;;9.90;81.69;98473.23;104869;1327;22193;-89
2023/01/01 09:29:39;;;;;;;22.70;20.50;;;;;;;10.00;82.05;98469.55;104946;1327;22278;-91
2023/01/01 09:32:07;;;;;;;17.30;15.50;;;;;;;10.09;82.01;98466.15;105052;1327;22798;-92
2023/01/01 09:34:35;;;;;;;18.50;16.70;;;;;;;10.17;81.92;98458.87;105071;1326;22268;-91
2023/01/01 09:37:03;;;;;;;18.40;16.50;;;;;;;10.25;81.88;98454.80;104970;1313;22296;-91
2023/01/01 09:39:31;;;;;;;20.80;18.70;;;;;;;10.34;81.90;98443.45;104959;1319;22152;-90
2023/01/01 09:46:23;;;;;;;19.50;17.60;;;;;;;10.53;81.62;98425.80;105027;1326;22243;-89
2023/01/01 09:49:02;;;;;;;18.60;16.90;;;;;;;10.58;81.18;98427.54;105003;1326;22273;-89
2023/01/01 09:51:34;;;;;;;17.80;15.70;;;;;;;10.64;81.06;98425.21;104984;1327;22972;-90
2023/01/01 09:54:34;;;;;;;17.50;15.70;;;;;;;10.73;80.78;98424.63;105059;1327;22198;-90
2023/01/01 09:57:09;;;;;;;18.50;16.70;;;;;;;10.84;80.79;98416.03;104983;1326;22175;-90
2023/01/01 09:59:46;;;;;;;17.30;15.50;;;;;;;10.95;81.04;98413.27;105012;1326;22247;-90
2023/01/01 10:02:42;;;;;;;18.60;16.70;;;;;;;11.04;81.06;98409.92;104974;1326;22174;-90
2023/01/01 10:05:31;;;;;;;16.00;14.40;;;;;;;11.14;80.63;98421.83;104958;1327;22143;-91
2023/01/01 10:08:30;;;;;;;17.30;15.50;;;;;;;11.20;79.43;98427.52;105072;1327;22898;-89
2023/01/01 10:11:10;;;;;;;18.20;16.20;;;;;;;11.26;78.98;98427.86;104969;1326;22809;-90
2023/01/01 10:13:41;;;;;;;18.10;16.20;;;;;;;11.30;77.17;98429.01;105075;1324;22169;-90
2023/01/01 10:16:19;;;;;;;19.80;17.80;;;;;;;11.33;78.04;98425.88;105050;1326;22275;-90
2023/01/01 10:18:55;;;;;;;18.70;16.80;;;;;;;11.42;76.38;98431.11;105058;1325;22110;-89
2023/01/01 10:21:29;;;;;;;19.80;17.80;;;;;;;11.52;77.11;98434.58;104964;1326;22136;-91
2023/01/01 10:24:03;;;;;;;20.80;18.80;;;;;;;11.62;76.17;98438.66;104991;1327;22932;-90
2023/01/01 10:26:36;;;;;;;20.10;17.90;;;;;;;11.69;77.14;98440.08;105019;1326;22783;-90
2023/01/01 10:29:35;;;;;;;19.70;17.60;;;;;;;11.78;76.66;98434.09;105439;1301;22174;-91
2023/01/01 10:32:33;;;;;;;22.70;20.40;;;;;;;11.88;77.10;98429.88;105030;1327;22771;-89
2023/01/01 10:35:11;;;;;;;44.00;40.00;;;;;;;11.97;76.86;98429.41;105059;1327;22111;-90
2023/01/01 10:42:02;;;;;;;37.60;33.50;;;;;;;12.21;77.15;98429.23;105055;1325;22174;-89
2023/01/01 10:44:33;;;;;;;37.00;32.80;;;;;;;12.31;76.63;98429.71;104911;1327;22786;-89
2023/01/01 10:47:30;;;;;;;32.00;28.50;;;;;;;12.41;75.57;98424.89;104970;1327;22088;-89
2023/01/01 10:50:03;;;;;;;30.00;24.90;;;;;;;12.51;76.07;98416.17;105001;1327;22199;-89
2023/01/01 10:52:37;;;;;;;29.50;26.40;;;;;;;12.62;75.90;98412.88;104953;1327;22290;-89
2023/01/01 10:55:27;;;;;;;22.90;20.50;;;;;;;12.75;76.48;98411.55;105031;1319;22094;-90
2023/01/01 10:57:55;;;;;;;22.20;19.20;;;;;;;12.88;75.70;98411.51;105137;1327;22212;-89
2023/01/01 11:00:26;;;;;;;19.20;17.10;;;;;;;12.99;75.88;98401.41;105588;1320;22143;-90
2023/01/01 11:03:20;;;;;;;18.10;16.20;;;;;;;13.12;76.04;98401.83;105040;1327;22145;-91
2023/01/01 11:06:22;;;;;;;17.70;15.90;;;;;;;13.30;75.20;98407.39;104968;1319;22077;-90
2023/01/01 11:08:53;;;;;;;18.70;16.80;;;;;;;13.45;75.35;98402.18;105088;1326;22130;-91
2023/01/01 11:11:25;;;;;;;17.80;16.00;;;;;;;13.59;75.34;98399.54;105086;1326;22149;-91
2023/01/01 11:13:56;;;;;;;18.70;16.80;;;;;;;13.76;75.13;98396.39;104969;1327;22070;-90
2023/01/01 11:16:26;;;;;;;15.80;14.30;;;;;;;13.91;74.25;98395.31;105070;1325;22162;-91
2023/01/01 11:19:27;;;;;;;15.80;14.20;;;;;;;14.05;73.37;98394.20;105063;1327;22105;-89
2023/01/01 11:21:58;;;;;;;16.70;14.40;;;;;;;14.26;73.93;98387.94;105005;1327;22226;-89
2023/01/01 11:24:29;;;;;;;15.90;14.30;;;;;;;14.43;72.64;98388.41;104906;1327;22122;-90
2023/01/01 11:27:23;;;;;;;15.50;13.90;;;;;;;14.72;73.03;98388.54;105484;1312;22047;-91
2023/01/01 11:30:17;;;;;;;15.50;13.90;;;;;;;15.02;73.22;98387.86;105072;1326;22923;-90
2023/01/01 11:32:47;;;;;;;15.30;13.90;;;;;;;15.26;73.32;98382.09;105055;1327;22085;-91
2023/01/01 11:35:25;;;;;;;14.80;13.20;;;;;;;15.57;73.39;98376.02;104956;1327;22104;-92
2023/01/01 11:37:56;;;;;;;15.40;13.80;;;;;;;16.07;72.78;98373.36;105021;1327;22146;-91
2023/01/01 11:40:55;;;;;;;15.10;13.10;;;;;;;16.72;72.52;98368.36;104999;1327;22106;-92
2023/01/01 11:43:27;;;;;;;15.50;13.90;;;;;;;17.46;71.83;98359.43;105009;1327;22206;-89
2023/01/01 11:45:57;;;;;;;15.50;13.90;;;;;;;17.99;71.51;98358.31;105064;1325;22785;-89
2023/01/01 11:48:30;;;;;;;15.30;13.70;;;;;;;18.55;70.18;98363.15;105015;1326;22265;-92
2023/01/01 11:51:05;;;;;;;14.40;12.90;;;;;;;18.74;69.40;98364.73;104988;1314;22096;-92
2023/01/01 11:53:36;;;;;;;14.50;13.00;;;;;;;19.00;69.79;98359.92;104934;1327;22140;-91
2023/01/01 11:56:21;;;;;;;18.50;14.30;;;;;;;19.40;69.36;98358.57;105043;1325;22187;-92
2023/01/01 11:58:54;;;;;;;13.30;11.90;;;;;;;19.94;68.39;98358.02;104939;1324;22174;-91
2023/01/01 12:01:41;;;;;;;14.70;13.20;;;;;;;20.34;68.40;98357.36;105076;1325;22157;-92
2023/01/01 12:04:18;;;;;;;13.30;12.00;;;;;;;20.58;64.17;98362.98;105335;1320;22135;-91
2023/01/01 12:06:52;;;;;;;14.70;13.10;;;;;;;20.47;64.38;98370.10;105030;1322;22200;-92
2023/01/01 12:09:44;;;;;;;14.80;13.10;;;;;;;20.49;60.92;98373.53;104961;1327;22849;-89
2023/01/01 12:12:25;;;;;;;16.90;14.20;;;;;;;20.55;60.40;98379.77;104933;1319;22184;-90
2023/01/01 12:15:11;;;;;;;16.10;13.70;;;;;;;20.65;55.10;98387.56;104971;1327;22227;-89